Time;durP1;ratioP1;P1;durP2;ratioP2;P2;SDS_P1;SDS_P2;PMS_P1;PMS_P2;Temp;Humidity;BMP_temperature;BMP_pressure;BME280_temperature;BME280_humidity;BME280_pressure;Samples;Min_cycle;Max_cycle;Signal;HPM_P1;HPM_P2
2022/05/14 00:01:58;;;;;;;2.90;1.95;;;14.50;99.90;;;;;;5011314;28;20856;-62
2022/05/14 00:04:28;;;;;;;3.65;1.65;;;14.20;99.90;;;;;;5010725;28;20255;-62
2022/05/14 00:06:56;;;;;;;3.97;1.63;;;14.10;99.90;;;;;;5012232;28;20210;-62
2022/05/14 00:09:24;;;;;;;1.98;1.33;;;13.90;99.90;;;;;;5010489;28;20643;-62
2022/05/14 00:14:37;;;;;;;6.78;1.17;;;13.90;99.90;;;;;;5010858;28;20267;-62
2022/05/14 00:17:05;;;;;;;3.65;1.50;;;13.90;99.90;;;;;;5011727;28;20229;-61
2022/05/14 00:19:35;;;;;;;4.22;1.60;;;13.90;99.90;;;;;;5010426;28;20218;-61
2022/05/14 00:22:03;;;;;;;5.85;1.48;;;13.90;99.90;;;;;;5007856;28;20674;-61
2022/05/14 00:24:31;;;;;;;4.10;1.42;;;13.90;99.90;;;;;;5011191;28;20577;-61
2022/05/14 00:26:58;;;;;;;3.35;1.25;;;13.90;99.90;;;;;;5010306;28;20210;-61
2022/05/14 00:29:27;;;;;;;9.73;1.90;;;13.90;99.90;;;;;;5010279;28;20249;-61
2022/05/14 00:31:55;;;;;;;5.95;1.60;;;14.00;99.90;;;;;;5007636;28;20206;-59
2022/05/14 00:34:22;;;;;;;3.28;1.20;;;14.10;99.90;;;;;;5010754;28;20224;-61
2022/05/14 00:36:52;;;;;;;3.75;1.60;;;14.10;99.90;;;;;;5011585;28;20206;-61
2022/05/14 00:39:19;;;;;;;3.42;1.45;;;14.10;99.90;;;;;;5010174;28;20225;-61
2022/05/14 00:41:49;;;;;;;4.00;1.90;;;14.10;99.90;;;;;;5011753;28;20361;-64
2022/05/14 00:44:17;;;;;;;6.07;2.15;;;14.10;99.90;;;;;;5009324;28;20744;-61
2022/05/14 00:46:52;;;;;;;3.47;1.52;;;14.10;99.90;;;;;;5010017;28;20221;-61
2022/05/14 00:49:24;;;;;;;4.32;1.50;;;14.10;99.90;;;;;;5004735;28;20228;-61
2022/05/14 00:51:54;;;;;;;3.90;1.48;;;14.10;99.90;;;;;;5010690;28;20247;-62
2022/05/14 00:54:28;;;;;;;5.43;1.38;;;14.00;99.90;;;;;;5005194;28;20236;-62
2022/05/14 00:56:59;;;;;;;3.50;1.45;;;14.00;99.90;;;;;;5007894;28;20644;-62
2022/05/14 00:59:28;;;;;;;3.50;1.35;;;13.90;99.90;;;;;;5005797;28;20214;-62
2022/05/14 01:01:58;;;;;;;6.70;1.92;;;13.90;99.90;;;;;;5004778;28;20260;-61
2022/05/14 01:04:27;;;;;;;3.20;1.60;;;14.00;99.90;;;;;;5009005;28;20540;-62
2022/05/14 01:07:01;;;;;;;2.80;1.40;;;14.00;99.90;;;;;;5011309;28;20679;-62
2022/05/14 01:09:30;;;;;;;2.33;1.50;;;14.10;99.90;;;;;;5010927;28;20320;-60
2022/05/14 01:11:58;;;;;;;2.55;1.48;;;14.10;99.90;;;;;;5009685;28;20197;-61
2022/05/14 01:14:26;;;;;;;3.92;1.60;;;14.10;99.90;;;;;;5010746;28;20221;-62
2022/05/14 01:16:54;;;;;;;5.20;1.73;;;14.00;99.90;;;;;;5008039;28;20231;-61
2022/05/14 01:19:23;;;;;;;4.20;1.73;;;14.00;99.90;;;;;;5008759;28;20252;-61
2022/05/14 01:22:04;;;;;;;6.65;2.08;;;13.80;99.90;;;;;;5009518;28;20292;-61
2022/05/14 01:27:29;;;;;;;3.60;1.98;;;13.60;99.90;;;;;;5007847;28;20197;-62
2022/05/14 01:29:56;;;;;;;2.42;1.58;;;13.50;99.90;;;;;;5009054;28;20271;-61
2022/05/14 01:32:24;;;;;;;4.63;1.75;;;13.50;99.90;;;;;;5008882;28;20733;-62
2022/05/14 01:34:52;;;;;;;3.92;2.15;;;13.50;99.90;;;;;;5009356;28;20224;-61
2022/05/14 01:37:21;;;;;;;3.03;1.42;;;13.50;99.90;;;;;;5008965;28;20263;-59
2022/05/14 01:39:48;;;;;;;3.25;1.45;;;13.50;99.90;;;;;;5009014;28;20288;-61
2022/05/14 01:42:16;;;;;;;3.42;1.45;;;13.50;99.90;;;;;;5009223;28;20240;-61
2022/05/14 01:44:46;;;;;;;4.45;1.70;;;13.70;99.90;;;;;;5011096;28;20201;-61
2022/05/14 01:47:14;;;;;;;4.10;1.75;;;13.80;99.90;;;;;;5004751;28;20636;-61
2022/05/14 01:49:42;;;;;;;4.18;1.50;;;13.90;99.90;;;;;;5006787;28;20233;-61
2022/05/14 01:52:10;;;;;;;5.78;1.55;;;14.10;99.90;;;;;;5009195;28;20205;-61
2022/05/14 01:54:38;;;;;;;3.40;1.23;;;14.20;99.90;;;;;;5009772;28;20263;-61
2022/05/14 01:57:06;;;;;;;7.40;1.88;;;14.30;99.90;;;;;;5008865;28;20288;-61
2022/05/14 01:59:34;;;;;;;3.40;1.50;;;14.50;99.90;;;;;;5007767;28;20253;-61
2022/05/14 02:02:09;;;;;;;2.88;1.58;;;14.50;99.90;;;;;;5009967;28;20617;-59
2022/05/14 02:04:37;;;;;;;2.95;2.25;;;14.50;99.90;;;;;;5008299;28;20205;-61
2022/05/14 02:07:05;;;;;;;2.45;1.45;;;14.50;99.90;;;;;;5010666;28;20240;-61
2022/05/14 02:09:33;;;;;;;4.93;2.05;;;14.40;99.90;;;;;;5010252;28;20253;-62
2022/05/14 02:12:02;;;;;;;3.40;1.88;;;14.50;99.90;;;;;;5009986;28;20971;-62
2022/05/14 02:14:30;;;;;;;4.03;1.98;;;14.30;99.90;;;;;;5010709;28;20260;-62
2022/05/14 02:16:58;;;;;;;3.05;2.35;;;14.30;99.90;;;;;;5000869;28;20859;-62
2022/05/14 02:19:28;;;;;;;4.43;1.80;;;14.30;99.90;;;;;;5010223;28;20319;-62
2022/05/14 02:21:55;;;;;;;2.33;1.65;;;14.30;99.90;;;;;;5004461;28;20205;-62
2022/05/14 02:24:23;;;;;;;3.65;1.80;;;14.40;99.90;;;;;;5005974;28;20209;-63
2022/05/14 02:26:51;;;;;;;2.60;1.60;;;14.40;99.90;;;;;;5006147;28;20256;-61
2022/05/14 02:29:19;;;;;;;5.05;1.65;;;14.30;99.90;;;;;;5011210;28;20576;-62
2022/05/14 02:31:47;;;;;;;4.35;1.67;;;14.20;99.90;;;;;;5012023;28;20638;-61
2022/05/14 02:34:15;;;;;;;3.90;1.80;;;14.20;99.90;;;;;;5006352;28;20236;-61
2022/05/14 02:36:45;;;;;;;3.05;1.70;;;14.20;99.90;;;;;;5010594;28;20224;-61
2022/05/14 02:39:13;;;;;;;7.53;2.35;;;14.10;99.90;;;;;;5006559;28;20259;-61
2022/05/14 02:41:41;;;;;;;2.38;1.38;;;14.10;99.90;;;;;;5013202;28;20244;-61
2022/05/14 02:44:08;;;;;;;5.85;1.90;;;14.10;99.90;;;;;;5009287;28;20205;-61
2022/05/14 02:46:36;;;;;;;3.25;1.50;;;14.00;99.90;;;;;;5011309;28;20247;-62
2022/05/14 02:49:04;;;;;;;3.13;2.30;;;14.10;99.90;;;;;;5005877;28;20736;-61
2022/05/14 02:51:32;;;;;;;3.70;1.90;;;14.20;99.90;;;;;;5009606;28;20213;-62
2022/05/14 02:54:01;;;;;;;2.38;1.73;;;14.20;99.90;;;;;;5008113;28;20624;-61
2022/05/14 02:56:29;;;;;;;2.65;1.77;;;14.20;99.90;;;;;;5012204;28;20229;-61
2022/05/14 02:59:09;;;;;;;4.53;2.05;;;14.10;99.90;;;;;;5012157;28;20674;-62
2022/05/14 03:01:38;;;;;;;6.63;2.13;;;14.00;99.90;;;;;;5007568;28;20248;-60
2022/05/14 03:04:06;;;;;;;4.20;2.10;;;14.00;99.90;;;;;;5007965;28;20201;-62
2022/05/14 03:06:33;;;;;;;4.20;1.85;;;14.00;99.90;;;;;;5011368;28;20240;-61
2022/05/14 03:09:03;;;;;;;3.58;2.10;;;14.10;99.90;;;;;;5011311;28;20209;-62
2022/05/14 03:11:31;;;;;;;4.28;2.22;;;14.00;99.90;;;;;;5012302;28;20205;-62
2022/05/14 03:13:59;;;;;;;2.70;1.70;;;14.00;99.90;;;;;;5011670;28;20256;-62
2022/05/14 03:16:28;;;;;;;2.63;1.73;;;13.90;99.90;;;;;;5012685;28;20263;-62
2022/05/14 03:18:56;;;;;;;2.65;2.03;;;13.90;99.90;;;;;;5012363;28;20252;-61
2022/05/14 03:21:24;;;;;;;3.92;1.90;;;13.90;99.90;;;;;;5013370;28;20719;-61
2022/05/14 03:23:52;;;;;;;2.95;1.92;;;13.80;99.90;;;;;;5008575;28;20230;-61
2022/05/14 03:26:21;;;;;;;2.42;1.92;;;13.70;99.90;;;;;;5010018;28;20747;-62
2022/05/14 03:28:49;;;;;;;5.70;2.25;;;13.70;99.90;;;;;;5010794;28;20607;-62
2022/05/14 03:31:17;;;;;;;3.53;2.22;;;13.60;99.90;;;;;;5012027;28;20714;-61
2022/05/14 03:33:45;;;;;;;2.17;1.83;;;13.70;99.90;;;;;;5010770;28;20226;-61
2022/05/14 03:36:13;;;;;;;2.95;1.88;;;13.70;99.90;;;;;;5008583;28;20364;-62
2022/05/14 03:38:41;;;;;;;3.70;2.33;;;13.60;99.90;;;;;;5008853;28;20198;-62
2022/05/14 03:41:09;;;;;;;3.00;1.83;;;13.50;99.90;;;;;;5009195;28;20308;-62
2022/05/14 03:43:39;;;;;;;6.35;2.30;;;13.50;99.90;;;;;;5010696;28;20202;-61
2022/05/14 03:46:07;;;;;;;2.63;2.15;;;13.50;99.90;;;;;;5009198;28;20292;-62
2022/05/14 03:48:36;;;;;;;3.00;2.00;;;13.40;99.90;;;;;;5011481;28;20217;-61
2022/05/14 03:51:05;;;;;;;6.50;2.83;;;13.30;99.90;;;;;;5010751;28;20321;-62
2022/05/14 03:53:33;;;;;;;5.78;2.45;;;13.20;99.90;;;;;;5010285;28;20263;-60
2022/05/14 03:56:01;;;;;;;6.65;2.08;;;13.20;99.90;;;;;;5010253;28;20304;-60
2022/05/14 03:58:30;;;;;;;2.35;2.00;;;13.20;99.90;;;;;;5008563;28;20221;-61
2022/05/14 04:00:59;;;;;;;3.88;2.67;;;13.30;99.90;;;;;;5012129;28;20245;-61
2022/05/14 04:03:28;;;;;;;3.22;2.00;;;13.40;99.90;;;;;;5008450;28;20204;-61
2022/05/14 04:05:56;;;;;;;4.07;2.47;;;13.50;99.90;;;;;;5021274;28;20210;-61
2022/05/14 04:08:24;;;;;;;4.50;1.98;;;13.50;99.90;;;;;;5012875;28;20293;-61
2022/05/14 04:10:52;;;;;;;3.17;2.10;;;13.50;99.90;;;;;;5011235;28;20267;-60
2022/05/14 04:13:19;;;;;;;4.53;2.20;;;13.60;99.90;;;;;;5010203;28;20232;-61
2022/05/14 04:15:48;;;;;;;3.67;2.13;;;13.50;99.90;;;;;;5011024;28;20197;-61
2022/05/14 04:18:20;;;;;;;2.58;2.28;;;13.50;99.90;;;;;;5012000;28;20237;-61
2022/05/14 04:20:48;;;;;;;2.80;2.05;;;13.50;99.90;;;;;;5011765;28;20244;-61
2022/05/14 04:23:20;;;;;;;5.80;2.35;;;13.50;99.90;;;;;;5011317;28;20228;-61
2022/05/14 04:25:49;;;;;;;5.38;2.10;;;13.50;99.90;;;;;;5009435;28;20279;-61
2022/05/14 04:28:18;;;;;;;4.00;2.28;;;13.50;99.90;;;;;;5011639;28;20283;-61
2022/05/14 04:30:46;;;;;;;6.15;2.20;;;13.50;99.90;;;;;;5011118;28;20348;-61
2022/05/14 04:33:15;;;;;;;2.92;2.10;;;13.50;99.90;;;;;;5010652;28;20654;-61
2022/05/14 04:35:44;;;;;;;5.47;2.50;;;13.50;99.90;;;;;;5010399;28;20284;-61
2022/05/14 04:38:12;;;;;;;3.05;2.00;;;13.50;99.90;;;;;;5011789;28;20232;-61
2022/05/14 04:40:40;;;;;;;3.17;1.92;;;13.50;99.90;;;;;;5010093;28;20225;-63
2022/05/14 04:43:10;;;;;;;3.85;2.38;;;13.60;99.90;;;;;;4996907;28;20297;-61
2022/05/14 04:45:39;;;;;;;3.65;2.10;;;13.70;99.90;;;;;;4994450;28;20205;-61
2022/05/14 04:48:08;;;;;;;4.00;2.40;;;13.80;99.90;;;;;;4995068;28;20741;-61
2022/05/14 04:50:36;;;;;;;3.38;1.95;;;13.90;99.90;;;;;;4994484;28;20245;-61
2022/05/14 04:53:05;;;;;;;8.43;3.05;;;14.00;99.90;;;;;;4992887;28;20215;-60
2022/05/14 04:55:34;;;;;;;3.00;2.08;;;14.10;99.90;;;;;;4996074;28;20206;-60
2022/05/14 04:58:02;;;;;;;4.13;1.90;;;14.10;99.90;;;;;;4993394;28;20252;-59
2022/05/14 05:00:30;;;;;;;3.40;1.92;;;14.10;99.90;;;;;;4995395;28;20284;-59
2022/05/14 05:05:44;;;;;;;3.78;2.03;;;14.40;99.90;;;;;;4994514;28;20212;-61
2022/05/14 05:08:13;;;;;;;4.32;2.17;;;14.50;99.90;;;;;;4994818;28;20205;-60
2022/05/14 05:10:41;;;;;;;3.53;2.10;;;14.60;99.90;;;;;;4995175;28;20291;-61
2022/05/14 05:13:11;;;;;;;5.95;2.05;;;14.70;99.90;;;;;;4991289;28;20276;-61
2022/05/14 05:15:40;;;;;;;9.18;2.28;;;14.80;99.90;;;;;;4995077;28;20866;-61
2022/05/14 05:18:09;;;;;;;6.10;2.10;;;14.80;99.90;;;;;;4993948;28;20233;-61
2022/05/14 05:20:39;;;;;;;3.13;1.85;;;14.90;99.90;;;;;;4993028;28;20232;-60
2022/05/14 05:23:07;;;;;;;7.93;2.25;;;15.00;99.90;;;;;;4992301;28;20754;-60
2022/05/14 05:25:36;;;;;;;4.93;2.00;;;15.10;99.90;;;;;;4994671;28;20678;-59
2022/05/14 05:28:05;;;;;;;7.00;2.78;;;15.20;99.90;;;;;;4995790;28;20224;-61
2022/05/14 05:30:33;;;;;;;6.93;2.97;;;15.20;99.90;;;;;;4993009;28;20303;-61
2022/05/14 05:33:01;;;;;;;6.60;3.10;;;15.20;99.90;;;;;;4991955;28;20296;-59
2022/05/14 05:35:29;;;;;;;3.95;2.90;;;15.20;99.90;;;;;;4994529;28;20304;-60
2022/05/14 05:37:57;;;;;;;4.65;2.63;;;15.20;99.90;;;;;;4995610;28;20233;-60
2022/05/14 05:40:25;;;;;;;7.25;3.08;;;15.40;99.90;;;;;;4993658;28;20320;-61
2022/05/14 05:42:54;;;;;;;6.60;3.17;;;15.60;99.90;;;;;;4991630;28;20307;-60
2022/05/14 05:45:22;;;;;;;7.95;3.00;;;15.60;99.90;;;;;;4993519;28;20208;-61
2022/05/14 05:47:50;;;;;;;7.20;3.40;;;15.70;99.90;;;;;;4995447;28;21055;-60
2022/05/14 05:50:18;;;;;;;6.10;2.83;;;15.80;99.90;;;;;;4993531;28;20256;-60
2022/05/14 05:52:46;;;;;;;5.28;3.22;;;15.90;99.90;;;;;;4990342;28;21002;-61
2022/05/14 05:58:09;;;;;;;7.13;3.58;;;15.70;99.90;;;;;;4950045;28;20244;-61
2022/05/14 06:00:38;;;;;;;6.40;2.67;;;15.90;99.90;;;;;;4999126;28;20252;-59
2022/05/14 06:03:06;;;;;;;2.95;2.50;;;16.00;99.90;;;;;;4994725;28;20237;-60
2022/05/14 06:05:38;;;;;;;6.45;3.35;;;16.20;99.90;;;;;;4999430;28;20567;-60
2022/05/14 06:08:08;;;;;;;6.80;2.08;;;16.40;99.90;;;;;;4996074;28;20830;-60
2022/05/14 06:10:36;;;;;;;8.73;2.75;;;16.50;99.90;;;;;;4996676;28;20260;-61
2022/05/14 06:13:05;;;;;;;4.05;2.35;;;16.80;99.90;;;;;;4995894;28;20288;-60
2022/05/14 06:15:34;;;;;;;10.88;3.35;;;16.90;99.90;;;;;;5026552;23;20233;-72
2022/05/14 06:18:02;;;;;;;6.28;3.00;;;16.90;99.90;;;;;;5004931;28;20239;-72
2022/05/14 06:20:30;;;;;;;6.78;3.00;;;17.10;99.90;;;;;;5011578;28;20263;-72
2022/05/14 06:23:02;;;;;;;4.60;2.97;;;17.20;99.90;;;;;;5013368;28;20197;-72
2022/05/14 06:25:29;;;;;;;11.63;3.95;;;17.20;99.90;;;;;;5008694;28;20245;-72
2022/05/14 06:27:57;;;;;;;9.02;3.35;;;17.30;99.90;;;;;;4997618;28;20752;-72
2022/05/14 06:30:26;;;;;;;5.20;2.40;;;17.30;99.90;;;;;;4998116;28;20209;-71
2022/05/14 06:33:02;;;;;;;8.60;2.60;;;17.40;99.90;;;;;;4991413;28;20218;-71
2022/05/14 06:35:29;;;;;;;6.35;2.80;;;17.50;99.90;;;;;;4989614;28;20255;-71
2022/05/14 06:37:57;;;;;;;8.05;3.13;;;17.30;99.90;;;;;;5002544;28;20676;-72
2022/05/14 06:40:25;;;;;;;5.22;2.67;;;17.40;99.90;;;;;;4986934;28;20621;-71
2022/05/14 06:42:53;;;;;;;6.70;2.20;;;17.50;99.90;;;;;;4987389;28;20265;-71
2022/05/14 06:45:22;;;;;;;6.43;2.35;;;17.60;99.90;;;;;;4987987;28;20292;-72
2022/05/14 06:47:50;;;;;;;4.20;2.20;;;17.80;99.90;;;;;;4987828;28;20272;-71
2022/05/14 06:50:19;;;;;;;5.95;2.30;;;17.80;99.90;;;;;;4987898;28;20230;-71
2022/05/14 06:52:50;;;;;;;5.50;2.08;;;17.90;99.90;;;;;;4993369;28;20260;-71
2022/05/14 06:55:21;;;;;;;6.55;1.77;;;18.10;99.90;;;;;;4988366;28;20659;-71
2022/05/14 06:57:51;;;;;;;4.13;1.88;;;18.20;99.90;;;;;;4994122;28;20737;-72
2022/05/14 07:00:20;;;;;;;6.00;1.90;;;18.20;99.90;;;;;;4994272;28;20226;-70
2022/05/14 07:02:48;;;;;;;2.92;1.75;;;18.30;99.90;;;;;;4992973;28;20217;-69
2022/05/14 07:08:04;;;;;;;3.20;2.00;;;18.40;99.90;;;;;;4994184;28;20567;-71
2022/05/14 07:10:32;;;;;;;6.82;2.30;;;18.60;99.90;;;;;;4992868;28;20298;-71
2022/05/14 07:12:59;;;;;;;5.78;2.00;;;18.50;99.90;;;;;;4993071;28;20261;-71
2022/05/14 07:15:27;;;;;;;3.88;1.83;;;18.70;99.90;;;;;;4993517;28;20288;-71
2022/05/14 07:17:55;;;;;;;7.50;2.40;;;18.70;99.90;;;;;;4993938;28;20957;-71
2022/05/14 07:20:24;;;;;;;4.60;1.80;;;18.80;99.90;;;;;;4993734;28;20249;-71
2022/05/14 07:22:52;;;;;;;4.03;2.15;;;18.80;99.90;;;;;;4993272;28;20214;-71
2022/05/14 07:25:21;;;;;;;3.92;2.17;;;19.00;99.90;;;;;;4993511;28;20743;-71
2022/05/14 07:27:49;;;;;;;3.63;2.00;;;19.10;99.90;;;;;;4993553;28;20206;-72
2022/05/14 07:30:17;;;;;;;6.43;2.10;;;19.10;99.90;;;;;;4993408;28;20198;-70
2022/05/14 07:32:45;;;;;;;3.60;1.65;;;19.00;99.90;;;;;;4992496;28;20257;-71
2022/05/14 07:35:13;;;;;;;3.88;2.25;;;19.20;99.90;;;;;;4993496;28;20244;-71
2022/05/14 07:37:47;;;;;;;6.30;1.90;;;19.20;99.90;;;;;;4993530;28;20216;-72
2022/05/14 07:40:18;;;;;;;5.80;2.67;;;19.30;99.90;;;;;;4993438;28;20555;-71
2022/05/14 07:42:51;;;;;;;2.97;1.98;;;19.30;99.70;;;;;;4992714;28;20248;-69
2022/05/14 07:45:25;;;;;;;5.25;1.95;;;19.50;99.50;;;;;;4993704;28;20621;-71
2022/05/14 07:47:56;;;;;;;3.70;2.20;;;19.60;99.70;;;;;;4993266;28;20260;-71
2022/05/14 07:50:24;;;;;;;8.98;2.50;;;19.80;99.90;;;;;;4993268;28;20264;-72
2022/05/14 07:52:52;;;;;;;4.18;2.47;;;20.00;99.70;;;;;;4992167;28;20249;-72
2022/05/14 07:55:21;;;;;;;3.15;1.70;;;20.10;99.10;;;;;;4992802;28;20317;-71
2022/05/14 07:57:51;;;;;;;2.47;1.95;;;20.30;99.60;;;;;;4992993;28;20635;-71
2022/05/14 08:00:20;;;;;;;3.97;2.03;;;20.40;99.50;;;;;;4992980;28;20236;-72
2022/05/14 08:02:48;;;;;;;5.55;1.95;;;20.50;98.80;;;;;;4991611;28;20574;-71
2022/05/14 08:05:20;;;;;;;4.55;1.80;;;20.40;98.80;;;;;;4996347;28;20232;-71
2022/05/14 08:07:48;;;;;;;4.30;1.73;;;20.50;98.40;;;;;;4992709;28;20221;-72
2022/05/14 08:10:17;;;;;;;4.25;2.15;;;20.60;98.10;;;;;;4992669;28;20679;-72
2022/05/14 08:12:50;;;;;;;2.95;1.55;;;20.70;98.20;;;;;;4991750;28;20217;-71
2022/05/14 08:15:26;;;;;;;4.38;2.20;;;20.90;97.80;;;;;;4992477;28;20241;-71
2022/05/14 08:17:54;;;;;;;3.25;1.83;;;21.10;97.30;;;;;;4992566;28;20609;-71
2022/05/14 08:20:23;;;;;;;5.55;1.88;;;21.30;97.50;;;;;;4992340;28;20638;-71
2022/05/14 08:25:37;;;;;;;6.25;2.60;;;21.70;97.00;;;;;;4986229;28;20213;-71
2022/05/14 08:28:05;;;;;;;3.80;1.70;;;21.90;95.80;;;;;;4986051;28;20202;-71
2022/05/14 08:30:36;;;;;;;5.20;1.80;;;22.00;95.10;;;;;;4985994;28;20567;-69
2022/05/14 08:33:04;;;;;;;2.70;1.60;;;22.10;95.30;;;;;;4986516;28;20254;-73
2022/05/14 08:35:32;;;;;;;5.82;1.80;;;22.10;95.60;;;;;;4992152;28;20222;-71
2022/05/14 08:38:01;;;;;;;3.25;1.70;;;22.00;94.70;;;;;;4992288;28;20241;-72
2022/05/14 08:40:31;;;;;;;2.40;1.55;;;22.10;95.50;;;;;;4992407;28;20229;-71
2022/05/14 08:43:02;;;;;;;5.82;2.00;;;22.40;95.50;;;;;;4991249;28;20278;-71
2022/05/14 08:45:37;;;;;;;3.10;1.70;;;22.50;94.10;;;;;;4992317;28;20705;-71
2022/05/14 08:48:13;;;;;;;4.28;2.08;;;22.70;94.10;;;;;;4992294;28;20240;-72
2022/05/14 08:50:42;;;;;;;4.25;2.20;;;22.80;94.00;;;;;;4992246;28;20202;-71
2022/05/14 08:53:12;;;;;;;6.50;1.95;;;22.50;94.10;;;;;;4991590;28;20284;-72
2022/05/14 08:55:46;;;;;;;5.85;1.92;;;22.50;94.20;;;;;;4992173;28;20321;-71
2022/05/14 08:58:24;;;;;;;7.20;2.88;;;22.90;95.10;;;;;;4992074;28;20214;-71
2022/05/14 09:00:53;;;;;;;5.40;2.40;;;23.00;93.40;;;;;;4992017;28;20202;-71
2022/05/14 09:03:22;;;;;;;5.95;1.95;;;23.00;93.80;;;;;;4990627;28;20666;-71
2022/05/14 09:05:55;;;;;;;3.33;1.45;;;23.10;94.30;;;;;;4995199;28;20218;-72
2022/05/14 09:08:24;;;;;;;5.35;1.90;;;23.40;92.90;;;;;;4985965;28;20285;-71
2022/05/14 09:10:59;;;;;;;4.63;2.15;;;23.80;92.60;;;;;;4992023;28;20237;-72
2022/05/14 09:13:29;;;;;;;7.57;2.50;;;24.00;92.30;;;;;;4991017;28;20213;-72
2022/05/14 09:16:02;;;;;;;8.30;2.38;;;24.10;92.10;;;;;;4991378;28;20242;-71
2022/05/14 09:18:33;;;;;;;4.93;3.00;;;24.20;91.80;;;;;;4991543;28;20205;-71
2022/05/14 09:21:04;;;;;;;3.78;2.28;;;24.50;91.80;;;;;;4991621;28;20209;-71
2022/05/14 09:23:40;;;;;;;2.38;1.80;;;24.60;91.20;;;;;;4990876;28;20202;-71
2022/05/14 09:26:12;;;;;;;3.58;1.60;;;24.70;90.30;;;;;;4991648;28;20312;-72
2022/05/14 09:28:45;;;;;;;10.98;2.35;;;24.90;89.80;;;;;;4991748;28;20671;-72
2022/05/14 09:31:25;;;;;;;4.65;1.80;;;25.00;90.30;;;;;;4991349;28;20651;-70
2022/05/14 09:34:03;;;;;;;4.93;2.67;;;25.10;90.10;;;;;;4991104;28;20225;-71
2022/05/14 09:36:41;;;;;;;12.80;2.40;;;25.10;90.60;;;;;;4991531;28;20254;-72
2022/05/14 09:39:13;;;;;;;6.68;2.80;;;24.80;90.10;;;;;;4991453;28;20285;-71
2022/05/14 09:41:43;;;;;;;4.43;2.08;;;24.30;90.70;;;;;;4991158;28;20240;-71
2022/05/14 09:44:19;;;;;;;2.70;1.70;;;24.70;92.80;;;;;;4990978;28;20259;-71
2022/05/14 09:46:49;;;;;;;7.40;2.33;;;24.90;91.90;;;;;;4990267;28;20324;-71
2022/05/14 09:49:21;;;;;;;5.22;2.00;;;25.20;90.60;;;;;;4990455;28;20206;-71
2022/05/14 09:51:53;;;;;;;5.20;2.33;;;25.50;90.50;;;;;;4979210;28;20260;-71
2022/05/14 09:54:23;;;;;;;5.97;2.13;;;25.80;89.00;;;;;;4975643;28;20238;-69
2022/05/14 09:57:17;;;;;;;3.85;2.05;;;25.80;88.40;;;;;;4975173;28;20304;-69
2022/05/14 10:00:05;;;;;;;5.03;1.85;;;25.90;88.90;;;;;;4975133;28;20614;-71
2022/05/14 10:03:05;;;;;;;4.80;1.70;;;26.30;87.50;;;;;;4973888;28;20225;-71
2022/05/14 10:05:50;;;;;;;2.58;2.10;;;26.50;87.20;;;;;;4966454;28;20679;-70
2022/05/14 10:08:28;;;;;;;4.40;2.72;;;26.60;88.00;;;;;;4974272;28;20205;-71
2022/05/14 10:11:06;;;;;;;5.05;2.40;;;26.30;87.90;;;;;;4974565;28;20713;-69
2022/05/14 10:13:40;;;;;;;5.70;1.58;;;26.10;87.00;;;;;;4973365;28;20225;-69
2022/05/14 10:16:14;;;;;;;3.83;2.10;;;26.40;87.30;;;;;;4974764;28;20312;-70
2022/05/14 10:19:00;;;;;;;2.80;1.65;;;26.80;86.20;;;;;;4971079;28;20214;-69
2022/05/14 10:21:41;;;;;;;3.63;1.55;;;26.90;85.00;;;;;;4977036;28;20297;-70
2022/05/14 10:27:47;;;;;;;4.75;1.80;;;27.40;86.50;;;;;;4930793;28;20253;-70
2022/05/14 10:30:21;;;;;;;6.45;2.25;;;27.50;87.90;;;;;;4976856;28;20308;-69
2022/05/14 10:32:57;;;;;;;2.25;1.48;;;27.80;84.00;;;;;;4977530;28;20233;-70
2022/05/14 10:35:29;;;;;;;4.50;1.85;;;27.90;83.60;;;;;;4978629;28;20344;-69
2022/05/14 10:38:05;;;;;;;4.78;1.30;;;27.60;82.10;;;;;;4977208;28;20237;-69
2022/05/14 10:40:36;;;;;;;5.07;1.65;;;27.70;84.90;;;;;;4978218;28;20209;-70
2022/05/14 10:43:27;;;;;;;3.92;1.60;;;27.70;82.10;;;;;;4977704;28;20329;-69
2022/05/14 10:45:56;;;;;;;2.67;1.55;;;27.80;84.00;;;;;;4981345;28;20229;-71
2022/05/14 10:48:37;;;;;;;5.53;2.20;;;27.30;80.50;;;;;;4979057;28;20206;-70
2022/05/14 10:51:08;;;;;;;3.42;1.40;;;27.30;81.70;;;;;;4979384;28;20205;-69
2022/05/14 10:53:40;;;;;;;4.53;1.55;;;27.50;81.20;;;;;;4979238;28;20236;-70
2022/05/14 10:56:13;;;;;;;3.00;1.55;;;27.70;80.60;;;;;;4979714;28;20253;-69
2022/05/14 10:58:45;;;;;;;5.60;1.70;;;28.10;81.30;;;;;;4978518;28;20201;-70
2022/05/14 11:01:29;;;;;;;4.15;1.92;;;28.40;80.40;;;;;;4979931;28;21606;-70
2022/05/14 11:03:59;;;;;;;3.25;1.30;;;28.30;81.80;;;;;;4979360;28;20312;-69
2022/05/14 11:06:32;;;;;;;3.70;1.77;;;28.00;80.20;;;;;;4980927;28;20311;-69
2022/05/14 11:09:15;;;;;;;2.75;1.67;;;28.00;81.50;;;;;;4979080;28;20217;-69
2022/05/14 11:11:49;;;;;;;4.35;1.55;;;28.40;79.40;;;;;;4979378;28;20218;-70
2022/05/14 11:14:17;;;;;;;5.10;1.85;;;28.70;77.40;;;;;;4980611;28;20229;-70
2022/05/14 11:16:48;;;;;;;5.40;1.55;;;28.60;77.50;;;;;;4977350;28;20261;-69
2022/05/14 11:19:27;;;;;;;3.97;2.00;;;28.70;76.00;;;;;;4978456;28;20353;-70
2022/05/14 11:21:55;;;;;;;5.45;1.63;;;28.50;77.10;;;;;;4980837;28;20205;-69
2022/05/14 11:24:36;;;;;;;3.38;1.50;;;28.20;77.10;;;;;;4980236;28;20325;-71
2022/05/14 11:27:05;;;;;;;4.25;1.65;;;28.20;75.90;;;;;;4981245;28;20233;-70
2022/05/14 11:29:46;;;;;;;4.75;1.65;;;28.50;78.40;;;;;;4977854;28;20209;-70
2022/05/14 11:32:17;;;;;;;1.58;1.35;;;28.50;78.30;;;;;;4978684;28;20706;-68
2022/05/14 11:34:52;;;;;;;4.45;1.85;;;28.40;77.10;;;;;;4979496;28;20288;-68
2022/05/14 11:37:29;;;;;;;2.38;1.50;;;28.20;77.10;;;;;;4978281;28;20240;-68
2022/05/14 11:40:17;;;;;;;7.15;2.03;;;28.40;77.20;;;;;;4979391;28;20236;-68
2022/05/14 11:42:47;;;;;;;4.30;1.48;;;29.10;76.70;;;;;;4978173;28;20293;-69
2022/05/14 11:45:19;;;;;;;4.35;1.63;;;29.20;75.00;;;;;;4980624;28;20667;-68
2022/05/14 11:47:54;;;;;;;7.07;1.80;;;28.60;75.10;;;;;;4975238;28;20341;-68
2022/05/14 11:50:28;;;;;;;2.95;1.40;;;28.40;77.40;;;;;;4978870;28;20201;-68
2022/05/14 11:53:29;;;;;;;2.13;1.40;;;28.80;75.80;;;;;;4978703;28;20213;-69
2022/05/14 11:56:02;;;;;;;3.25;1.52;;;29.30;75.70;;;;;;4978766;28;20239;-68
2022/05/14 11:58:37;;;;;;;4.25;1.45;;;29.60;75.30;;;;;;4975344;28;20312;-68
2022/05/14 12:01:07;;;;;;;2.85;1.52;;;30.00;76.20;;;;;;4979132;28;20205;-68
2022/05/14 12:03:39;;;;;;;3.28;1.70;;;29.70;75.80;;;;;;4977447;28;20206;-67
2022/05/14 12:06:21;;;;;;;3.97;1.50;;;29.50;74.60;;;;;;4976310;28;20692;-68
2022/05/14 12:09:05;;;;;;;6.30;1.52;;;29.20;74.10;;;;;;4974015;28;20205;-68
2022/05/14 12:11:42;;;;;;;4.43;1.45;;;29.60;74.40;;;;;;4976798;28;20220;-68
2022/05/14 12:14:13;;;;;;;2.67;1.35;;;29.60;73.70;;;;;;4975679;28;20316;-70
2022/05/14 12:16:48;;;;;;;5.15;1.50;;;29.10;73.90;;;;;;4976272;28;20328;-67
2022/05/14 12:19:19;;;;;;;3.35;1.60;;;28.90;75.30;;;;;;4973511;28;20264;-68
2022/05/14 12:21:52;;;;;;;4.07;1.70;;;28.90;74.90;;;;;;4976588;28;20303;-68
2022/05/14 12:24:22;;;;;;;3.42;1.38;;;29.50;74.20;;;;;;4976683;28;20846;-68
2022/05/14 12:26:51;;;;;;;4.70;1.83;;;29.80;73.70;;;;;;4976955;28;20217;-69
2022/05/14 12:29:23;;;;;;;5.20;1.17;;;29.90;71.90;;;;;;4974165;28;20325;-68
2022/05/14 12:34:46;;;;;;;2.70;1.40;;;30.30;74.00;;;;;;4976344;28;20284;-68
2022/05/14 12:37:21;;;;;;;2.88;1.80;;;30.90;72.50;;;;;;4974791;28;20258;-68
2022/05/14 12:39:51;;;;;;;2.70;1.40;;;31.00;71.10;;;;;;4975474;28;20296;-69
2022/05/14 12:42:30;;;;;;;8.15;1.85;;;31.00;70.70;;;;;;4976149;28;20744;-69
2022/05/14 12:44:59;;;;;;;4.75;1.83;;;30.70;70.50;;;;;;4977041;28;20233;-68
2022/05/14 12:47:30;;;;;;;2.47;1.50;;;30.70;71.60;;;;;;4974004;28;20202;-67
2022/05/14 12:50:01;;;;;;;2.38;1.23;;;30.80;69.20;;;;;;4978125;28;20286;-68
2022/05/14 12:52:32;;;;;;;4.28;1.27;;;30.90;68.70;;;;;;4975900;28;20867;-70
2022/05/14 12:55:04;;;;;;;3.40;1.10;;;31.00;71.20;;;;;;4976500;28;20226;-68
2022/05/14 12:57:36;;;;;;;3.15;1.10;;;31.00;69.10;;;;;;4973337;28;20316;-68
2022/05/14 13:00:06;;;;;;;2.20;1.03;;;31.30;68.30;;;;;;4976553;28;20251;-68
2022/05/14 13:02:37;;;;;;;2.37;1.40;;;31.30;69.80;;;;;;4974647;28;20632;-71
2022/05/14 13:05:09;;;;;;;2.60;1.40;;;31.70;68.10;;;;;;4976214;28;20628;-68
2022/05/14 13:07:46;;;;;;;3.27;1.63;;;31.90;69.00;;;;;;4972000;28;20625;-68
2022/05/14 13:10:16;;;;;;;2.07;1.27;;;32.20;69.30;;;;;;4975434;28;20636;-69
2022/05/14 13:12:51;;;;;;;4.63;1.30;;;32.30;67.40;;;;;;4974794;28;20629;-68
2022/05/14 13:15:20;;;;;;;4.15;2.08;;;31.40;66.80;;;;;;4976199;28;20319;-68
2022/05/14 13:17:48;;;;;;;5.50;1.52;;;31.00;67.20;;;;;;4972537;28;20285;-68
2022/05/14 13:20:20;;;;;;;3.28;1.38;;;30.70;68.20;;;;;;4975632;28;20256;-69
2022/05/14 13:22:49;;;;;;;4.35;1.55;;;31.00;68.10;;;;;;4973284;28;20206;-69
2022/05/14 13:25:31;;;;;;;3.47;1.40;;;31.10;67.20;;;;;;4974376;28;20284;-68
2022/05/14 13:28:15;;;;;;;5.82;1.63;;;31.10;68.30;;;;;;4971855;28;20205;-67